sensor_id;sensor_type;location;lat;lon;timestamp;P1;durP1;ratioP1;P2;durP2;ratioP2
80400;SDS011;69727;53.132;8.230;2023-07-13T00:01:04;12.10;;;5.20;;
80400;SDS011;69727;53.132;8.230;2023-07-13T00:03:31;9.48;;;4.95;;
80400;SDS011;69727;53.132;8.230;2023-07-13T00:06:00;13.02;;;5.65;;
80400;SDS011;69727;53.132;8.230;2023-07-13T00:08:26;11.52;;;5.20;;
80400;SDS011;69727;53.132;8.230;2023-07-13T00:10:52;10.38;;;5.53;;
80400;SDS011;69727;53.132;8.230;2023-07-13T00:13:19;10.98;;;5.50;;
80400;SDS011;69727;53.132;8.230;2023-07-13T00:15:45;11.48;;;5.72;;
80400;SDS011;69727;53.132;8.230;2023-07-13T00:18:10;10.60;;;5.97;;
80400;SDS011;69727;53.132;8.230;2023-07-13T00:20:35;9.65;;;5.30;;
80400;SDS011;69727;53.132;8.230;2023-07-13T00:23:01;11.53;;;5.50;;
80400;SDS011;69727;53.132;8.230;2023-07-13T00:25:27;9.38;;;5.38;;
80400;SDS011;69727;53.132;8.230;2023-07-13T00:27:55;10.57;;;5.30;;
80400;SDS011;69727;53.132;8.230;2023-07-13T00:30:21;11.48;;;5.70;;
80400;SDS011;69727;53.132;8.230;2023-07-13T00:32:47;12.20;;;5.18;;
80400;SDS011;69727;53.132;8.230;2023-07-13T00:35:13;10.30;;;5.68;;
80400;SDS011;69727;53.132;8.230;2023-07-13T00:37:40;9.63;;;5.53;;
80400;SDS011;69727;53.132;8.230;2023-07-13T00:40:06;11.57;;;5.53;;
80400;SDS011;69727;53.132;8.230;2023-07-13T00:42:32;10.18;;;5.07;;
80400;SDS011;69727;53.132;8.230;2023-07-13T00:45:02;9.93;;;5.88;;
80400;SDS011;69727;53.132;8.230;2023-07-13T00:47:37;10.52;;;5.22;;
80400;SDS011;69727;53.132;8.230;2023-07-13T00:50:04;11.88;;;4.70;;
80400;SDS011;69727;53.132;8.230;2023-07-13T00:52:33;10.85;;;5.28;;
80400;SDS011;69727;53.132;8.230;2023-07-13T00:55:01;10.75;;;5.57;;
80400;SDS011;69727;53.132;8.230;2023-07-13T00:57:28;10.50;;;5.13;;
80400;SDS011;69727;53.132;8.230;2023-07-13T00:59:55;13.55;;;4.95;;
80400;SDS011;69727;53.132;8.230;2023-07-13T01:02:24;9.82;;;4.50;;
80400;SDS011;69727;53.132;8.230;2023-07-13T01:04:50;9.48;;;4.75;;
80400;SDS011;69727;53.132;8.230;2023-07-13T01:07:15;10.38;;;4.93;;
80400;SDS011;69727;53.132;8.230;2023-07-13T01:09:42;11.25;;;5.05;;
80400;SDS011;69727;53.132;8.230;2023-07-13T01:12:09;12.77;;;5.25;;
80400;SDS011;69727;53.132;8.230;2023-07-13T01:14:34;7.35;;;4.53;;
80400;SDS011;69727;53.132;8.230;2023-07-13T01:16:59;9.27;;;4.97;;
80400;SDS011;69727;53.132;8.230;2023-07-13T01:19:32;12.43;;;4.45;;
80400;SDS011;69727;53.132;8.230;2023-07-13T01:22:14;9.80;;;4.40;;
80400;SDS011;69727;53.132;8.230;2023-07-13T01:24:42;13.35;;;5.72;;
80400;SDS011;69727;53.132;8.230;2023-07-13T01:27:11;7.38;;;4.50;;
80400;SDS011;69727;53.132;8.230;2023-07-13T01:29:38;9.55;;;4.15;;
80400;SDS011;69727;53.132;8.230;2023-07-13T01:34:33;10.73;;;4.85;;
80400;SDS011;69727;53.132;8.230;2023-07-13T01:36:58;11.18;;;4.88;;
80400;SDS011;69727;53.132;8.230;2023-07-13T01:39:24;8.43;;;4.68;;
80400;SDS011;69727;53.132;8.230;2023-07-13T01:41:49;12.60;;;4.57;;
80400;SDS011;69727;53.132;8.230;2023-07-13T01:44:15;14.03;;;4.57;;
80400;SDS011;69727;53.132;8.230;2023-07-13T01:46:40;14.17;;;4.70;;
80400;SDS011;69727;53.132;8.230;2023-07-13T01:49:05;17.17;;;4.75;;
80400;SDS011;69727;53.132;8.230;2023-07-13T01:51:31;10.32;;;4.85;;
80400;SDS011;69727;53.132;8.230;2023-07-13T01:53:56;9.30;;;4.68;;
80400;SDS011;69727;53.132;8.230;2023-07-13T01:56:22;9.63;;;4.60;;
80400;SDS011;69727;53.132;8.230;2023-07-13T01:58:47;11.50;;;5.18;;
80400;SDS011;69727;53.132;8.230;2023-07-13T02:01:13;10.63;;;4.70;;
80400;SDS011;69727;53.132;8.230;2023-07-13T02:03:39;11.25;;;5.32;;
80400;SDS011;69727;53.132;8.230;2023-07-13T02:06:04;13.43;;;4.37;;
80400;SDS011;69727;53.132;8.230;2023-07-13T02:08:30;12.60;;;4.82;;
80400;SDS011;69727;53.132;8.230;2023-07-13T02:10:57;10.93;;;5.05;;
80400;SDS011;69727;53.132;8.230;2023-07-13T02:13:22;13.87;;;4.60;;
80400;SDS011;69727;53.132;8.230;2023-07-13T02:15:49;10.70;;;5.35;;
80400;SDS011;69727;53.132;8.230;2023-07-13T02:18:16;10.95;;;4.70;;
80400;SDS011;69727;53.132;8.230;2023-07-13T02:20:42;11.48;;;5.15;;
80400;SDS011;69727;53.132;8.230;2023-07-13T02:23:08;16.45;;;5.70;;
80400;SDS011;69727;53.132;8.230;2023-07-13T02:25:33;12.40;;;5.50;;
80400;SDS011;69727;53.132;8.230;2023-07-13T02:27:59;16.35;;;5.40;;
80400;SDS011;69727;53.132;8.230;2023-07-13T02:30:24;12.13;;;5.60;;
80400;SDS011;69727;53.132;8.230;2023-07-13T02:32:50;16.63;;;5.50;;
80400;SDS011;69727;53.132;8.230;2023-07-13T02:35:15;12.73;;;5.35;;
80400;SDS011;69727;53.132;8.230;2023-07-13T02:37:41;18.27;;;6.20;;
80400;SDS011;69727;53.132;8.230;2023-07-13T02:40:06;11.00;;;4.87;;
80400;SDS011;69727;53.132;8.230;2023-07-13T02:42:34;11.77;;;5.38;;
80400;SDS011;69727;53.132;8.230;2023-07-13T02:44:59;13.63;;;5.43;;
80400;SDS011;69727;53.132;8.230;2023-07-13T02:47:25;15.30;;;5.47;;
80400;SDS011;69727;53.132;8.230;2023-07-13T02:49:51;14.23;;;4.90;;
80400;SDS011;69727;53.132;8.230;2023-07-13T02:52:17;10.75;;;5.07;;
80400;SDS011;69727;53.132;8.230;2023-07-13T02:54:42;12.50;;;5.35;;
80400;SDS011;69727;53.132;8.230;2023-07-13T02:57:08;11.70;;;5.25;;
80400;SDS011;69727;53.132;8.230;2023-07-13T02:59:33;13.33;;;4.93;;
80400;SDS011;69727;53.132;8.230;2023-07-13T03:01:58;11.20;;;4.50;;
80400;SDS011;69727;53.132;8.230;2023-07-13T03:04:26;13.15;;;4.57;;
80400;SDS011;69727;53.132;8.230;2023-07-13T03:06:51;14.83;;;5.20;;
80400;SDS011;69727;53.132;8.230;2023-07-13T03:09:16;15.52;;;5.00;;
80400;SDS011;69727;53.132;8.230;2023-07-13T03:11:42;10.77;;;4.40;;
80400;SDS011;69727;53.132;8.230;2023-07-13T03:14:08;16.40;;;5.20;;
80400;SDS011;69727;53.132;8.230;2023-07-13T03:16:33;12.55;;;4.25;;
80400;SDS011;69727;53.132;8.230;2023-07-13T03:18:59;11.68;;;4.57;;
80400;SDS011;69727;53.132;8.230;2023-07-13T03:21:24;12.20;;;4.90;;
80400;SDS011;69727;53.132;8.230;2023-07-13T03:23:50;11.77;;;4.97;;
80400;SDS011;69727;53.132;8.230;2023-07-13T03:26:16;13.13;;;4.00;;
80400;SDS011;69727;53.132;8.230;2023-07-13T03:28:45;12.65;;;3.95;;
80400;SDS011;69727;53.132;8.230;2023-07-13T03:31:12;13.20;;;4.32;;
80400;SDS011;69727;53.132;8.230;2023-07-13T03:33:39;15.30;;;4.93;;
80400;SDS011;69727;53.132;8.230;2023-07-13T03:36:09;10.60;;;4.05;;
80400;SDS011;69727;53.132;8.230;2023-07-13T03:38:41;12.43;;;4.15;;
80400;SDS011;69727;53.132;8.230;2023-07-13T03:41:06;15.98;;;5.00;;
80400;SDS011;69727;53.132;8.230;2023-07-13T03:43:32;14.45;;;4.32;;
80400;SDS011;69727;53.132;8.230;2023-07-13T03:46:00;8.57;;;3.90;;
80400;SDS011;69727;53.132;8.230;2023-07-13T03:48:26;15.85;;;3.92;;
80400;SDS011;69727;53.132;8.230;2023-07-13T03:50:51;11.23;;;4.03;;
80400;SDS011;69727;53.132;8.230;2023-07-13T03:53:17;9.02;;;3.97;;
80400;SDS011;69727;53.132;8.230;2023-07-13T03:55:43;11.13;;;3.70;;
80400;SDS011;69727;53.132;8.230;2023-07-13T03:58:29;14.07;;;3.83;;
80400;SDS011;69727;53.132;8.230;2023-07-13T04:00:56;16.35;;;3.90;;
80400;SDS011;69727;53.132;8.230;2023-07-13T04:03:23;10.38;;;3.60;;
80400;SDS011;69727;53.132;8.230;2023-07-13T04:05:49;13.82;;;4.20;;
80400;SDS011;69727;53.132;8.230;2023-07-13T04:08:15;15.23;;;3.78;;
80400;SDS011;69727;53.132;8.230;2023-07-13T04:10:40;13.73;;;3.90;;
80400;SDS011;69727;53.132;8.230;2023-07-13T04:13:06;12.23;;;3.45;;
80400;SDS011;69727;53.132;8.230;2023-07-13T04:15:32;13.30;;;3.97;;
80400;SDS011;69727;53.132;8.230;2023-07-13T04:17:57;9.38;;;3.28;;
80400;SDS011;69727;53.132;8.230;2023-07-13T04:20:24;11.57;;;3.53;;
80400;SDS011;69727;53.132;8.230;2023-07-13T04:22:50;11.65;;;3.90;;
80400;SDS011;69727;53.132;8.230;2023-07-13T04:25:16;13.00;;;3.47;;
80400;SDS011;69727;53.132;8.230;2023-07-13T04:27:41;11.25;;;3.75;;
80400;SDS011;69727;53.132;8.230;2023-07-13T04:30:07;9.63;;;3.03;;
80400;SDS011;69727;53.132;8.230;2023-07-13T04:32:32;9.65;;;2.83;;
80400;SDS011;69727;53.132;8.230;2023-07-13T04:34:58;17.35;;;3.85;;
80400;SDS011;69727;53.132;8.230;2023-07-13T04:37:24;13.05;;;3.47;;
80400;SDS011;69727;53.132;8.230;2023-07-13T04:39:54;13.85;;;3.90;;
80400;SDS011;69727;53.132;8.230;2023-07-13T04:42:19;13.75;;;4.05;;
80400;SDS011;69727;53.132;8.230;2023-07-13T04:44:48;12.43;;;3.53;;
80400;SDS011;69727;53.132;8.230;2023-07-13T04:47:18;13.27;;;3.08;;
80400;SDS011;69727;53.132;8.230;2023-07-13T04:49:48;8.38;;;3.33;;
80400;SDS011;69727;53.132;8.230;2023-07-13T04:52:14;7.60;;;3.20;;
80400;SDS011;69727;53.132;8.230;2023-07-13T04:54:39;10.77;;;3.70;;
80400;SDS011;69727;53.132;8.230;2023-07-13T04:57:05;18.00;;;3.40;;
80400;SDS011;69727;53.132;8.230;2023-07-13T04:59:31;11.20;;;2.95;;
80400;SDS011;69727;53.132;8.230;2023-07-13T05:01:57;11.27;;;3.22;;
80400;SDS011;69727;53.132;8.230;2023-07-13T05:04:23;11.52;;;3.50;;
80400;SDS011;69727;53.132;8.230;2023-07-13T05:06:48;11.75;;;3.42;;
80400;SDS011;69727;53.132;8.230;2023-07-13T05:09:16;9.38;;;3.58;;
80400;SDS011;69727;53.132;8.230;2023-07-13T05:11:42;11.00;;;3.60;;
80400;SDS011;69727;53.132;8.230;2023-07-13T05:14:08;13.32;;;3.22;;
80400;SDS011;69727;53.132;8.230;2023-07-13T05:16:38;9.63;;;3.10;;
80400;SDS011;69727;53.132;8.230;2023-07-13T05:19:03;14.25;;;4.32;;
80400;SDS011;69727;53.132;8.230;2023-07-13T05:21:29;10.30;;;3.25;;
80400;SDS011;69727;53.132;8.230;2023-07-13T05:24:00;8.90;;;3.00;;
80400;SDS011;69727;53.132;8.230;2023-07-13T05:26:29;13.05;;;3.67;;
80400;SDS011;69727;53.132;8.230;2023-07-13T05:28:54;11.52;;;3.10;;
80400;SDS011;69727;53.132;8.230;2023-07-13T05:33:51;10.27;;;2.90;;
80400;SDS011;69727;53.132;8.230;2023-07-13T05:36:22;9.05;;;3.33;;
80400;SDS011;69727;53.132;8.230;2023-07-13T05:38:47;12.50;;;3.55;;
80400;SDS011;69727;53.132;8.230;2023-07-13T05:41:12;11.95;;;3.50;;
80400;SDS011;69727;53.132;8.230;2023-07-13T05:43:38;11.38;;;3.10;;
80400;SDS011;69727;53.132;8.230;2023-07-13T05:46:06;11.55;;;3.40;;
80400;SDS011;69727;53.132;8.230;2023-07-13T05:48:35;9.18;;;3.60;;
80400;SDS011;69727;53.132;8.230;2023-07-13T05:51:01;11.38;;;3.80;;
80400;SDS011;69727;53.132;8.230;2023-07-13T05:53:26;13.57;;;3.83;;
80400;SDS011;69727;53.132;8.230;2023-07-13T05:55:53;12.27;;;3.60;;
80400;SDS011;69727;53.132;8.230;2023-07-13T05:58:19;12.65;;;3.33;;
80400;SDS011;69727;53.132;8.230;2023-07-13T06:00:45;9.93;;;3.30;;
80400;SDS011;69727;53.132;8.230;2023-07-13T06:03:11;13.10;;;3.53;;
80400;SDS011;69727;53.132;8.230;2023-07-13T06:05:37;10.90;;;3.92;;
80400;SDS011;69727;53.132;8.230;2023-07-13T06:08:04;9.45;;;3.25;;
80400;SDS011;69727;53.132;8.230;2023-07-13T06:10:36;9.95;;;3.72;;
80400;SDS011;69727;53.132;8.230;2023-07-13T06:13:02;11.98;;;4.20;;
80400;SDS011;69727;53.132;8.230;2023-07-13T06:15:28;10.90;;;3.92;;
80400;SDS011;69727;53.132;8.230;2023-07-13T06:17:53;11.00;;;3.35;;
80400;SDS011;69727;53.132;8.230;2023-07-13T06:20:19;8.77;;;3.45;;
80400;SDS011;69727;53.132;8.230;2023-07-13T06:22:44;12.98;;;4.30;;
80400;SDS011;69727;53.132;8.230;2023-07-13T06:25:09;9.45;;;3.10;;
80400;SDS011;69727;53.132;8.230;2023-07-13T06:27:35;13.23;;;3.90;;
80400;SDS011;69727;53.132;8.230;2023-07-13T06:30:00;9.90;;;3.45;;
80400;SDS011;69727;53.132;8.230;2023-07-13T06:32:26;12.13;;;3.58;;
80400;SDS011;69727;53.132;8.230;2023-07-13T06:34:51;12.17;;;3.80;;
80400;SDS011;69727;53.132;8.230;2023-07-13T06:37:17;13.15;;;4.22;;
80400;SDS011;69727;53.132;8.230;2023-07-13T06:39:43;11.50;;;3.35;;
80400;SDS011;69727;53.132;8.230;2023-07-13T06:42:09;10.45;;;3.63;;
80400;SDS011;69727;53.132;8.230;2023-07-13T06:44:35;10.43;;;3.50;;
80400;SDS011;69727;53.132;8.230;2023-07-13T06:47:01;10.77;;;3.03;;
80400;SDS011;69727;53.132;8.230;2023-07-13T06:49:26;12.60;;;3.90;;
80400;SDS011;69727;53.132;8.230;2023-07-13T06:51:52;10.50;;;3.50;;
80400;SDS011;69727;53.132;8.230;2023-07-13T06:54:17;12.77;;;3.65;;
80400;SDS011;69727;53.132;8.230;2023-07-13T06:56:42;11.13;;;3.70;;
80400;SDS011;69727;53.132;8.230;2023-07-13T06:59:08;9.70;;;3.85;;
80400;SDS011;69727;53.132;8.230;2023-07-13T07:01:33;9.93;;;3.97;;
80400;SDS011;69727;53.132;8.230;2023-07-13T07:03:59;15.00;;;3.43;;
80400;SDS011;69727;53.132;8.230;2023-07-13T07:06:24;11.25;;;3.20;;
80400;SDS011;69727;53.132;8.230;2023-07-13T07:08:50;9.75;;;3.28;;
80400;SDS011;69727;53.132;8.230;2023-07-13T07:11:18;9.02;;;3.55;;
80400;SDS011;69727;53.132;8.230;2023-07-13T07:13:48;13.55;;;3.78;;
80400;SDS011;69727;53.132;8.230;2023-07-13T07:16:13;10.32;;;3.30;;
80400;SDS011;69727;53.132;8.230;2023-07-13T07:18:39;10.10;;;3.60;;
80400;SDS011;69727;53.132;8.230;2023-07-13T07:21:04;13.85;;;3.30;;
80400;SDS011;69727;53.132;8.230;2023-07-13T07:23:33;12.25;;;4.05;;
80400;SDS011;69727;53.132;8.230;2023-07-13T07:25:59;11.18;;;2.90;;
80400;SDS011;69727;53.132;8.230;2023-07-13T07:28:25;10.48;;;3.78;;
80400;SDS011;69727;53.132;8.230;2023-07-13T07:30:52;10.35;;;3.50;;
80400;SDS011;69727;53.132;8.230;2023-07-13T07:33:18;12.43;;;3.08;;
80400;SDS011;69727;53.132;8.230;2023-07-13T07:35:44;10.10;;;2.65;;
80400;SDS011;69727;53.132;8.230;2023-07-13T07:38:09;10.13;;;2.80;;
80400;SDS011;69727;53.132;8.230;2023-07-13T07:40:38;7.18;;;2.88;;
80400;SDS011;69727;53.132;8.230;2023-07-13T07:43:08;9.00;;;3.08;;
80400;SDS011;69727;53.132;8.230;2023-07-13T07:45:34;10.95;;;3.50;;
80400;SDS011;69727;53.132;8.230;2023-07-13T07:48:00;11.23;;;2.97;;
80400;SDS011;69727;53.132;8.230;2023-07-13T07:50:26;7.35;;;3.25;;
80400;SDS011;69727;53.132;8.230;2023-07-13T07:52:52;7.47;;;2.58;;
80400;SDS011;69727;53.132;8.230;2023-07-13T07:55:18;8.13;;;2.80;;
80400;SDS011;69727;53.132;8.230;2023-07-13T07:57:43;7.78;;;2.63;;
80400;SDS011;69727;53.132;8.230;2023-07-13T08:00:09;12.53;;;3.23;;
80400;SDS011;69727;53.132;8.230;2023-07-13T08:02:35;11.40;;;3.92;;
80400;SDS011;69727;53.132;8.230;2023-07-13T08:05:05;8.98;;;2.85;;
80400;SDS011;69727;53.132;8.230;2023-07-13T08:07:30;8.07;;;2.70;;
80400;SDS011;69727;53.132;8.230;2023-07-13T08:09:57;9.30;;;3.10;;
80400;SDS011;69727;53.132;8.230;2023-07-13T08:12:22;10.23;;;3.00;;
80400;SDS011;69727;53.132;8.230;2023-07-13T08:14:51;8.82;;;2.30;;
80400;SDS011;69727;53.132;8.230;2023-07-13T08:17:22;8.60;;;2.70;;
80400;SDS011;69727;53.132;8.230;2023-07-13T08:19:48;10.00;;;2.80;;
80400;SDS011;69727;53.132;8.230;2023-07-13T08:22:13;7.57;;;2.80;;
80400;SDS011;69727;53.132;8.230;2023-07-13T08:24:38;6.15;;;2.70;;
80400;SDS011;69727;53.132;8.230;2023-07-13T08:27:04;8.13;;;2.70;;
80400;SDS011;69727;53.132;8.230;2023-07-13T08:29:30;13.57;;;3.20;;
80400;SDS011;69727;53.132;8.230;2023-07-13T08:31:59;9.68;;;3.00;;
80400;SDS011;69727;53.132;8.230;2023-07-13T08:34:24;7.00;;;2.83;;
80400;SDS011;69727;53.132;8.230;2023-07-13T08:36:50;10.52;;;2.72;;
80400;SDS011;69727;53.132;8.230;2023-07-13T08:39:15;10.70;;;2.78;;
80400;SDS011;69727;53.132;8.230;2023-07-13T08:41:41;10.15;;;2.33;;
80400;SDS011;69727;53.132;8.230;2023-07-13T08:44:10;8.65;;;2.80;;
80400;SDS011;69727;53.132;8.230;2023-07-13T08:46:45;9.73;;;2.42;;
80400;SDS011;69727;53.132;8.230;2023-07-13T08:49:13;8.85;;;2.30;;
80400;SDS011;69727;53.132;8.230;2023-07-13T08:54:30;4.88;;;1.83;;
80400;SDS011;69727;53.132;8.230;2023-07-13T08:56:53;7.03;;;2.00;;
80400;SDS011;69727;53.132;8.230;2023-07-13T08:59:20;5.15;;;1.67;;
80400;SDS011;69727;53.132;8.230;2023-07-13T09:02:15;6.03;;;2.10;;
80400;SDS011;69727;53.132;8.230;2023-07-13T09:05:22;6.13;;;2.30;;
80400;SDS011;69727;53.132;8.230;2023-07-13T09:10:46;6.70;;;2.38;;
80400;SDS011;69727;53.132;8.230;2023-07-13T09:16:09;6.97;;;2.28;;
80400;SDS011;69727;53.132;8.230;2023-07-13T09:18:44;6.88;;;1.80;;
80400;SDS011;69727;53.132;8.230;2023-07-13T09:21:13;8.25;;;2.08;;
80400;SDS011;69727;53.132;8.230;2023-07-13T09:23:42;6.18;;;1.70;;
80400;SDS011;69727;53.132;8.230;2023-07-13T09:26:15;7.82;;;1.98;;
80400;SDS011;69727;53.132;8.230;2023-07-13T09:28:45;5.68;;;2.42;;
80400;SDS011;69727;53.132;8.230;2023-07-13T09:33:44;6.63;;;2.20;;
80400;SDS011;69727;53.132;8.230;2023-07-13T09:36:29;6.57;;;2.15;;
80400;SDS011;69727;53.132;8.230;2023-07-13T09:44:35;6.38;;;2.00;;
80400;SDS011;69727;53.132;8.230;2023-07-13T09:47:03;5.93;;;2.00;;
80400;SDS011;69727;53.132;8.230;2023-07-13T09:49:41;3.95;;;1.80;;
80400;SDS011;69727;53.132;8.230;2023-07-13T09:52:15;9.23;;;2.28;;
80400;SDS011;69727;53.132;8.230;2023-07-13T09:57:50;5.30;;;2.08;;
80400;SDS011;69727;53.132;8.230;2023-07-13T10:00:22;5.80;;;2.05;;
80400;SDS011;69727;53.132;8.230;2023-07-13T10:03:27;9.20;;;2.53;;
80400;SDS011;69727;53.132;8.230;2023-07-13T10:06:00;7.00;;;1.77;;
80400;SDS011;69727;53.132;8.230;2023-07-13T10:08:40;6.43;;;1.70;;
80400;SDS011;69727;53.132;8.230;2023-07-13T10:11:10;4.78;;;1.38;;
80400;SDS011;69727;53.132;8.230;2023-07-13T10:13:44;6.88;;;1.88;;
80400;SDS011;69727;53.132;8.230;2023-07-13T10:16:14;6.20;;;1.92;;
80400;SDS011;69727;53.132;8.230;2023-07-13T10:18:46;5.43;;;2.20;;
80400;SDS011;69727;53.132;8.230;2023-07-13T10:21:20;7.00;;;1.95;;
80400;SDS011;69727;53.132;8.230;2023-07-13T10:26:55;7.13;;;1.52;;
80400;SDS011;69727;53.132;8.230;2023-07-13T10:29:29;6.63;;;1.80;;
80400;SDS011;69727;53.132;8.230;2023-07-13T10:32:01;6.35;;;1.70;;
80400;SDS011;69727;53.132;8.230;2023-07-13T10:34:27;3.53;;;1.58;;
80400;SDS011;69727;53.132;8.230;2023-07-13T10:36:53;5.07;;;1.58;;
80400;SDS011;69727;53.132;8.230;2023-07-13T10:39:20;5.72;;;1.95;;
80400;SDS011;69727;53.132;8.230;2023-07-13T10:41:50;6.47;;;1.85;;
80400;SDS011;69727;53.132;8.230;2023-07-13T10:44:27;6.85;;;2.45;;
80400;SDS011;69727;53.132;8.230;2023-07-13T10:46:55;8.07;;;2.40;;
80400;SDS011;69727;53.132;8.230;2023-07-13T10:49:27;6.38;;;2.50;;
80400;SDS011;69727;53.132;8.230;2023-07-13T10:59:09;4.47;;;1.10;;
80400;SDS011;69727;53.132;8.230;2023-07-13T11:01:46;2.58;;;1.10;;
80400;SDS011;69727;53.132;8.230;2023-07-13T11:04:18;4.07;;;1.38;;
80400;SDS011;69727;53.132;8.230;2023-07-13T11:06:46;3.78;;;1.13;;
80400;SDS011;69727;53.132;8.230;2023-07-13T11:22:51;3.20;;;1.38;;
80400;SDS011;69727;53.132;8.230;2023-07-13T11:25:34;4.28;;;1.90;;
80400;SDS011;69727;53.132;8.230;2023-07-13T11:35:59;5.15;;;2.22;;
80400;SDS011;69727;53.132;8.230;2023-07-13T11:38:36;5.57;;;1.98;;
80400;SDS011;69727;53.132;8.230;2023-07-13T11:41:26;8.80;;;2.53;;
80400;SDS011;69727;53.132;8.230;2023-07-13T11:44:10;6.38;;;2.70;;
80400;SDS011;69727;53.132;8.230;2023-07-13T11:46:37;5.13;;;2.78;;
80400;SDS011;69727;53.132;8.230;2023-07-13T11:49:04;5.68;;;2.60;;
80400;SDS011;69727;53.132;8.230;2023-07-13T11:51:32;5.10;;;2.53;;
80400;SDS011;69727;53.132;8.230;2023-07-13T11:54:10;6.80;;;2.67;;
80400;SDS011;69727;53.132;8.230;2023-07-13T11:56:45;6.35;;;2.60;;
80400;SDS011;69727;53.132;8.230;2023-07-13T11:59:11;5.75;;;3.08;;
80400;SDS011;69727;53.132;8.230;2023-07-13T12:01:43;6.03;;;3.33;;
80400;SDS011;69727;53.132;8.230;2023-07-13T12:04:21;8.65;;;3.55;;
80400;SDS011;69727;53.132;8.230;2023-07-13T12:06:56;6.80;;;3.03;;
80400;SDS011;69727;53.132;8.230;2023-07-13T12:09:25;4.93;;;1.90;;
80400;SDS011;69727;53.132;8.230;2023-07-13T12:11:51;6.70;;;3.38;;
80400;SDS011;69727;53.132;8.230;2023-07-13T12:14:18;6.22;;;3.10;;
80400;SDS011;69727;53.132;8.230;2023-07-13T12:16:47;5.10;;;2.30;;
80400;SDS011;69727;53.132;8.230;2023-07-13T12:19:21;4.72;;;1.83;;
80400;SDS011;69727;53.132;8.230;2023-07-13T12:21:48;4.32;;;2.10;;
80400;SDS011;69727;53.132;8.230;2023-07-13T12:24:16;4.18;;;2.15;;
80400;SDS011;69727;53.132;8.230;2023-07-13T12:26:52;3.80;;;1.85;;
80400;SDS011;69727;53.132;8.230;2023-07-13T12:29:26;4.03;;;1.73;;
80400;SDS011;69727;53.132;8.230;2023-07-13T12:31:52;4.32;;;2.15;;
80400;SDS011;69727;53.132;8.230;2023-07-13T12:34:18;3.90;;;1.70;;
80400;SDS011;69727;53.132;8.230;2023-07-13T12:36:56;3.55;;;1.65;;
80400;SDS011;69727;53.132;8.230;2023-07-13T12:47:22;4.38;;;1.48;;
80400;SDS011;69727;53.132;8.230;2023-07-13T12:49:58;4.95;;;1.50;;
80400;SDS011;69727;53.132;8.230;2023-07-13T12:52:30;3.45;;;1.40;;
80400;SDS011;69727;53.132;8.230;2023-07-13T12:55:05;6.53;;;1.65;;
80400;SDS011;69727;53.132;8.230;2023-07-13T12:57:40;4.30;;;1.50;;
80400;SDS011;69727;53.132;8.230;2023-07-13T13:02:52;3.00;;;1.50;;
80400;SDS011;69727;53.132;8.230;2023-07-13T13:05:20;4.10;;;1.45;;
80400;SDS011;69727;53.132;8.230;2023-07-13T13:07:48;3.88;;;1.75;;
80400;SDS011;69727;53.132;8.230;2023-07-13T13:10:14;3.47;;;1.42;;
80400;SDS011;69727;53.132;8.230;2023-07-13T13:12:41;4.07;;;1.50;;
80400;SDS011;69727;53.132;8.230;2023-07-13T13:15:10;2.92;;;1.45;;
80400;SDS011;69727;53.132;8.230;2023-07-13T13:17:39;4.28;;;1.40;;
80400;SDS011;69727;53.132;8.230;2023-07-13T13:20:15;3.20;;;1.40;;
80400;SDS011;69727;53.132;8.230;2023-07-13T13:22:45;3.40;;;1.60;;
80400;SDS011;69727;53.132;8.230;2023-07-13T13:25:11;4.00;;;1.38;;
80400;SDS011;69727;53.132;8.230;2023-07-13T13:27:37;3.75;;;1.45;;
80400;SDS011;69727;53.132;8.230;2023-07-13T13:32:45;3.70;;;1.40;;
80400;SDS011;69727;53.132;8.230;2023-07-13T13:35:16;3.40;;;1.35;;
80400;SDS011;69727;53.132;8.230;2023-07-13T13:37:43;4.15;;;1.60;;
80400;SDS011;69727;53.132;8.230;2023-07-13T13:40:15;3.97;;;1.60;;
80400;SDS011;69727;53.132;8.230;2023-07-13T13:42:46;5.75;;;1.85;;
80400;SDS011;69727;53.132;8.230;2023-07-13T13:45:11;5.05;;;1.58;;
80400;SDS011;69727;53.132;8.230;2023-07-13T13:47:38;5.22;;;2.10;;
80400;SDS011;69727;53.132;8.230;2023-07-13T13:50:10;5.93;;;2.33;;
80400;SDS011;69727;53.132;8.230;2023-07-13T13:52:47;3.88;;;1.90;;
80400;SDS011;69727;53.132;8.230;2023-07-13T13:55:13;4.53;;;2.20;;
80400;SDS011;69727;53.132;8.230;2023-07-13T13:57:40;5.22;;;2.10;;
80400;SDS011;69727;53.132;8.230;2023-07-13T14:00:07;4.70;;;1.90;;
80400;SDS011;69727;53.132;8.230;2023-07-13T14:02:36;3.85;;;1.67;;
80400;SDS011;69727;53.132;8.230;2023-07-13T14:05:02;4.38;;;1.60;;
80400;SDS011;69727;53.132;8.230;2023-07-13T14:07:29;4.55;;;1.60;;
80400;SDS011;69727;53.132;8.230;2023-07-13T14:09:58;4.57;;;1.50;;
80400;SDS011;69727;53.132;8.230;2023-07-13T14:12:26;4.45;;;1.60;;
80400;SDS011;69727;53.132;8.230;2023-07-13T14:14:55;3.75;;;1.50;;
80400;SDS011;69727;53.132;8.230;2023-07-13T14:17:24;5.75;;;1.83;;
80400;SDS011;69727;53.132;8.230;2023-07-13T14:19:52;4.50;;;1.83;;
80400;SDS011;69727;53.132;8.230;2023-07-13T14:22:22;4.25;;;1.80;;
80400;SDS011;69727;53.132;8.230;2023-07-13T14:24:49;12.38;;;3.53;;
80400;SDS011;69727;53.132;8.230;2023-07-13T14:27:15;9.85;;;2.67;;
80400;SDS011;69727;53.132;8.230;2023-07-13T14:29:40;9.30;;;2.90;;
80400;SDS011;69727;53.132;8.230;2023-07-13T14:32:09;4.80;;;2.40;;
80400;SDS011;69727;53.132;8.230;2023-07-13T14:34:36;5.13;;;1.85;;
80400;SDS011;69727;53.132;8.230;2023-07-13T14:37:01;5.63;;;1.93;;
80400;SDS011;69727;53.132;8.230;2023-07-13T14:39:29;4.22;;;1.90;;
80400;SDS011;69727;53.132;8.230;2023-07-13T14:41:55;4.78;;;2.17;;
80400;SDS011;69727;53.132;8.230;2023-07-13T14:44:26;6.53;;;2.53;;
80400;SDS011;69727;53.132;8.230;2023-07-13T14:46:57;6.13;;;2.75;;
80400;SDS011;69727;53.132;8.230;2023-07-13T14:49:31;5.68;;;2.90;;
80400;SDS011;69727;53.132;8.230;2023-07-13T14:52:00;6.63;;;2.30;;
80400;SDS011;69727;53.132;8.230;2023-07-13T14:54:27;6.13;;;2.60;;
80400;SDS011;69727;53.132;8.230;2023-07-13T14:56:52;7.60;;;2.85;;
80400;SDS011;69727;53.132;8.230;2023-07-13T14:59:18;4.22;;;2.30;;
80400;SDS011;69727;53.132;8.230;2023-07-13T15:01:44;6.30;;;3.55;;
80400;SDS011;69727;53.132;8.230;2023-07-13T15:04:10;6.03;;;3.03;;
80400;SDS011;69727;53.132;8.230;2023-07-13T15:09:26;5.05;;;2.20;;
80400;SDS011;69727;53.132;8.230;2023-07-13T15:11:54;5.15;;;2.35;;
80400;SDS011;69727;53.132;8.230;2023-07-13T15:14:20;5.43;;;2.40;;
80400;SDS011;69727;53.132;8.230;2023-07-13T15:16:47;5.15;;;2.40;;
80400;SDS011;69727;53.132;8.230;2023-07-13T15:19:15;5.13;;;2.30;;
80400;SDS011;69727;53.132;8.230;2023-07-13T15:21:43;5.00;;;2.33;;
80400;SDS011;69727;53.132;8.230;2023-07-13T15:24:09;8.38;;;2.60;;
80400;SDS011;69727;53.132;8.230;2023-07-13T15:26:35;6.97;;;3.08;;
80400;SDS011;69727;53.132;8.230;2023-07-13T15:29:00;9.95;;;3.08;;
80400;SDS011;69727;53.132;8.230;2023-07-13T15:31:26;8.60;;;2.40;;
80400;SDS011;69727;53.132;8.230;2023-07-13T15:33:54;5.32;;;2.42;;
80400;SDS011;69727;53.132;8.230;2023-07-13T15:36:20;7.63;;;2.95;;
80400;SDS011;69727;53.132;8.230;2023-07-13T15:38:48;11.30;;;3.90;;
80400;SDS011;69727;53.132;8.230;2023-07-13T15:41:16;7.13;;;3.67;;
80400;SDS011;69727;53.132;8.230;2023-07-13T15:43:42;8.07;;;3.50;;
80400;SDS011;69727;53.132;8.230;2023-07-13T15:46:07;10.30;;;4.03;;
80400;SDS011;69727;53.132;8.230;2023-07-13T15:48:33;9.95;;;4.07;;
80400;SDS011;69727;53.132;8.230;2023-07-13T15:51:00;10.77;;;3.87;;
80400;SDS011;69727;53.132;8.230;2023-07-13T15:53:31;8.30;;;3.60;;
80400;SDS011;69727;53.132;8.230;2023-07-13T16:12:57;13.13;;;4.72;;
80400;SDS011;69727;53.132;8.230;2023-07-13T16:32:19;8.80;;;4.13;;